Last 7 Days

Top Stn/Summit

Hourly Data | America/Los_Angeles
as of 12/1/22 11:14 PM PST
Date & Time Temp (°F) WindChill (°F) RH (%) Dew Pt (°F) Wet Bulb (°F) Wind Dir (°) Wind Spd (mph) Wind Gust (mph) Wind Gst Dir (°) Daily Min Temp (°F) Daily Max Temp (°F) Daily Max Wind (mph)
12/1/22 - 2300 13.7 -11.0 91 11.7 13.3 SSW | 211 46.7 83.5 SW | 219 12.1 15.7 85.0
12/1/22 - 2200 15.5 -9.6 92 13.7 15.1 SW | 221 52.9 85.0 WSW | 244 12.1 15.7 85.0
12/1/22 - 2100 15.4 -9.5 93 13.6 15.0 SW | 225 51.4 69.6 SSW | 201 12.1 15.7 84.9
12/1/22 - 2000 14.8 -10.9 92 12.9 14.4 SW | 224 54.7 84.9 SW | 216 12.1 15.6 84.9
12/1/22 - 1900 14.4 -11.0 92 12.5 14.0 SW | 227 52.4 66.3 WSW | 238 12.1 15.6 68.5
12/1/22 - 1800 14.4 -10.8 92 12.5 14.0 SW | 228 50.9 64.4 SW | 223 12.1 15.6 68.5
12/1/22 - 1700 14.7 -10.1 92 12.8 14.3 SW | 228 49.5 63.7 SW | 233 12.1 15.6 68.5
12/1/22 - 1600 14.8 -9.8 92 13.0 14.4 SW | 221 48.8 60.0 SW | 236 12.1 15.6 68.5
12/1/22 - 1500 15.0 -9.9 92 13.1 14.5 SW | 220 50.6 66.3 WSW | 238 12.1 15.6 68.5
12/1/22 - 1400 15.2 -9.6 92 13.3 14.7 SW | 221 50.5 64.9 SW | 223 12.1 15.6 68.5
12/1/22 - 1300 15.4 -8.9 92 13.5 14.9 SW | 223 47.8 64.4 SW | 229 12.1 15.6 68.5
12/1/22 - 1200 15.4 -9.8 92 13.6 14.9 SSW | 203 53.0 68.5 SSW | 199 12.1 15.6 68.5
12/1/22 - 1100 14.7 -9.6 92 12.8 14.2 SW | 216 46.4 57.6 S | 188 12.1 15.1 67.1
12/1/22 - 1000 14.5 -10.2 92 12.6 14.1 SW | 224 48.0 59.1 SSW | 197 12.1 14.8 67.1
12/1/22 - 0900 14.0 -11.0 92 12.0 13.6 SW | 214 48.6 57.6 SW | 233 12.1 14.4 67.1
12/1/22 - 0800 13.5 -11.8 92 11.5 13.1 SW | 227 49.4 63.6 SW | 235 12.1 13.7 67.1
12/1/22 - 0700 13.1 -12.9 91 11.0 12.7 SW | 232 51.9 63.2 SW | 228 12.1 13.6 67.1
12/1/22 - 0600 12.5 -12.8 91 10.4 12.1 SW | 221 47.3 58.0 WSW | 241 12.1 13.6 67.1
12/1/22 - 0500 12.9 -11.6 91 10.8 12.5 SW | 222 44.1 54.9 WSW | 247 12.1 13.6 67.1
12/1/22 - 0400 12.8 -12.2 91 10.7 12.4 SW | 223 46.2 57.6 SW | 236 12.1 13.6 67.1
12/1/22 - 0300 12.5 -13.3 91 10.4 12.1 SW | 225 49.6 56.4 SW | 224 12.1 13.6 67.1
12/1/22 - 0200 12.4 -14.0 91 10.2 12.0 SW | 228 52.9 62.2 SW | 230 12.1 13.6 67.1
12/1/22 - 0100 13.2 -13.5 91 11.1 12.8 SW | 228 56.9 67.1 SW | 215 13.0 13.6 67.1
12/1/22 - 0000 13.7 -13.6 91 11.6 13.2 SW | 227 61.9 74.2 SW | 230 13.1 20.0 74.2
11/30/22 - 2300 13.8 -13.1 91 11.8 13.4 SW | 228 59.4 68.9 SW | 226 13.1 20.0 68.9
11/30/22 - 2200 13.7 -12.3 91 11.7 13.3 SW | 226 54.4 62.7 WSW | 241 13.1 20.0 63.6
11/30/22 - 2100 13.5 -12.8 91 11.4 13.1 SW | 220 54.9 61.1 WSW | 238 13.1 20.0 63.6
11/30/22 - 2000 13.4 -12.7 91 11.3 13.0 SW | 224 53.7 63.6 SW | 236 13.1 20.0 63.6
11/30/22 - 1900 13.7 -11.6 91 11.6 13.2 SW | 218 49.4 59.9 SW | 232 13.3 20.0 59.9
11/30/22 - 1800 15.0 -8.4 83 10.7 14.0 SW | 225 43.2 55.2 WSW | 242 14.3 20.0 55.2
11/30/22 - 1700 17.2 -4.5 68 8.4 15.1 SW | 225 38.2 48.3 SW | 234 15.0 20.0 53.6
11/30/22 - 1600 17.5 -3.2 69 8.9 15.5 SW | 227 34.6 41.6 SSW | 196 15.0 20.0 53.6
11/30/22 - 1500 17.8 -3.8 65 8.0 15.5 SW | 231 39.4 53.3 WSW | 239 15.0 20.0 53.6
11/30/22 - 1400 19.1 -2.9 50 3.6 15.7 SW | 228 43.5 53.6 WSW | 241 15.0 20.0 53.6
11/30/22 - 1300 19.5 -1.6 40 -0.8 15.4 SW | 230 39.9 49.0 SW | 222 15.0 20.0 49.0
11/30/22 - 1200 19.3 -1.4 35 -3.9 14.9 SW | 229 37.8 44.4 SW | 236 15.0 20.0 48.5
11/30/22 - 1100 19.2 -1.6 32 -5.8 14.6 SW | 230 38.0 45.3 SW | 232 15.0 20.0 48.5
11/30/22 - 1000 17.6 -3.8 35 -5.7 13.4 SW | 224 38.2 48.5 S | 181 15.0 20.0 48.5
11/30/22 - 0900 16.4 -5.4 41 -3.1 12.8 SW | 232 37.7 41.3 SW | 226 15.0 20.0 43.8
11/30/22 - 0800 15.6 -6.3 50 0.2 12.6 SW | 234 36.6 43.0 WSW | 249 15.0 20.0 43.8
11/30/22 - 0700 15.8 -4.7 48 -0.4 12.7 WSW | 237 31.0 37.2 WSW | 238 15.0 20.0 43.8
11/30/22 - 0600 16.3 -2.8 45 -1.5 12.9 WSW | 240 26.8 34.2 SW | 225 15.9 20.0 43.8
11/30/22 - 0500 17.2 -1.5 41 -2.4 13.4 WSW | 237 26.2 34.9 SW | 223 16.5 20.0 43.8
11/30/22 - 0400 17.7 -2.4 36 -4.5 13.6 SW | 234 32.6 38.0 WSW | 238 16.9 20.0 43.8
11/30/22 - 0300 19.0 -0.9 40 -1.5 14.9 SW | 229 33.3 39.0 WSW | 244 17.9 20.0 43.8
11/30/22 - 0200 19.3 -0.8 40 -1.1 15.2 SW | 231 34.9 40.2 SW | 225 19.0 20.0 43.8
11/30/22 - 0100 19.6 -1.2 39 -1.5 15.4 SW | 235 38.7 43.8 WSW | 239 19.0 20.0 43.8
11/30/22 - 0000 20.3 0.8 37 -1.8 15.8 WSW | 238 33.9 39.4 WSW | 241 7.6 29.0 44.4
11/29/22 - 2300 21.6 4.4 36 -1.3 16.8 SW | 222 26.1 31.7 SW | 236 7.6 29.0 44.4
11/29/22 - 2200 22.7 6.7 36 -0.2 17.8 SW | 215 23.7 28.3 SSW | 205 7.6 29.0 44.4
11/29/22 - 2100 22.2 5.3 35 -1.3 17.3 SW | 215 25.8 28.5 SW | 219 7.6 29.0 44.4
11/29/22 - 2000 22.3 5.7 33 -2.7 17.2 SSW | 213 25.1 27.9 SSW | 192 7.6 29.0 44.4
11/29/22 - 1900 22.5 5.6 33 -2.4 17.4 SW | 222 26.3 28.8 SW | 236 7.6 29.0 44.4
11/29/22 - 1800 23.2 6.0 34 -1.2 18.0 SW | 216 28.5 32.3 SSE | 165 7.6 29.0 44.4
11/29/22 - 1700 24.2 8.0 33 -0.6 18.8 SW | 221 25.8 30.2 SW | 230 7.6 29.0 44.4
11/29/22 - 1600 25.3 9.7 30 -2.1 19.4 SW | 227 25.1 30.4 SW | 235 7.6 29.0 44.4
11/29/22 - 1500 27.3 14.4 28 -1.9 20.8 SW | 220 18.2 25.8 SW | 234 7.6 29.0 44.4
11/29/22 - 1400 27.8 18.2 27 -1.9 21.1 SW | 215 10.5 18.1 SSW | 193 7.6 28.5 44.4
11/29/22 - 1300 28.0 22.1 27 -1.7 21.3 WSW | 238 5.3 9.0 WSW | 239 7.6 28.5 44.4
11/29/22 - 1200 28.1 - 25 -3.7 21.2 SE | 137 2.4 7.4 ESE | 121 7.6 28.5 44.4
11/29/22 - 1100 27.1 - 24 -4.6 20.4 SE | 146 2.9 8.8 SE | 137 7.6 28.4 44.4
11/29/22 - 1000 25.4 16.4 22 -7.8 18.9 ESE | 109 8.6 16.3 ENE | 65 7.6 27.3 44.4
11/29/22 - 0900 24.5 17.5 22 -9.2 18.1 ESE | 112 5.8 12.8 ESE | 108 7.6 26.2 44.4
11/29/22 - 0800 25.2 20.1 22 -8.8 18.6 ENE | 76 4.1 9.0 NNW | 340 7.6 26.2 44.4
11/29/22 - 0700 23.6 19.4 22 -10.0 17.4 ENE | 75 3.3 8.7 N | 2 7.6 25.5 44.4
11/29/22 - 0600 24.0 11.5 21 -9.9 17.7 SSW | 201 14.7 21.8 N | 1 7.6 25.5 44.4
11/29/22 - 0500 22.5 6.4 24 -8.7 16.7 WNW | 294 23.5 33.9 WNW | 287 7.6 24.3 44.4
11/29/22 - 0400 16.5 -2.6 35 -6.2 12.5 WSW | 255 26.9 43.0 WSW | 252 7.6 20.0 44.4
11/29/22 - 0300 13.6 -7.0 39 -6.8 10.2 WSW | 244 28.7 44.4 WSW | 251 7.6 15.4 44.4
11/29/22 - 0200 11.2 -10.9 56 -1.5 9.0 WSW | 241 30.5 36.4 WSW | 245 7.6 12.4 37.2
11/29/22 - 0100 8.6 -14.4 85 5.0 8.1 WSW | 239 30.8 37.2 WSW | 241 7.6 9.8 37.2
11/29/22 - 0000 8.2 -14.9 89 5.7 8.0 WSW | 242 30.8 36.8 SW | 222 7.6 19.8 84.6
11/28/22 - 2300 9.5 -12.7 90 7.1 9.2 WSW | 242 29.1 37.2 WSW | 246 8.8 19.8 84.6
11/28/22 - 2200 10.8 -11.3 90 8.5 10.5 WSW | 240 30.4 41.1 SW | 216 9.3 19.8 84.6
11/28/22 - 2100 12.4 -10.4 91 10.3 12.0 SW | 235 35.2 44.7 WSW | 239 12.1 19.8 84.6
11/28/22 - 2000 13.0 -10.3 92 11.0 12.6 SW | 232 38.4 49.7 SW | 232 12.6 19.8 84.6
11/28/22 - 1900 13.7 -10.3 92 11.7 13.3 WSW | 239 42.9 57.1 SW | 236 12.7 19.8 84.6
11/28/22 - 1800 14.5 -10.8 92 12.7 14.1 WSW | 238 51.7 74.5 SW | 228 13.8 19.8 84.6
11/28/22 - 1700 15.9 -9.3 93 14.3 15.5 WSW | 240 54.8 67.2 WSW | 243 15.2 19.8 84.6
11/28/22 - 1600 16.5 -8.3 94 15.1 16.1 SW | 231 53.9 68.8 WSW | 249 15.2 19.8 84.6
11/28/22 - 1500 16.6 -9.2 94 15.2 16.3 SW | 220 61.1 76.4 SW | 226 15.2 19.8 84.6
11/28/22 - 1400 16.8 -9.9 93 15.1 16.4 SW | 221 67.8 84.6 SW | 235 15.2 19.8 84.6
11/28/22 - 1300 17.4 -8.6 93 15.7 16.9 SW | 222 63.8 79.2 WSW | 237 15.2 19.8 79.2
11/28/22 - 1200 18.3 -6.4 93 16.7 17.8 SW | 229 58.3 73.4 SW | 228 15.2 19.8 73.4
11/28/22 - 1100 16.5 -8.8 92 14.7 16.0 SW | 228 57.2 68.9 SW | 233 15.2 19.8 68.9
11/28/22 - 1000 15.8 -9.6 92 13.8 15.3 SW | 226 55.9 66.3 WSW | 242 15.2 19.8 68.0
11/28/22 - 0900 15.9 -9.4 83 11.6 14.9 SW | 225 55.4 66.7 SW | 232 15.6 19.8 68.0
11/28/22 - 0800 16.1 -9.1 69 7.5 14.2 SW | 231 55.0 68.0 SW | 236 15.7 19.8 68.0
11/28/22 - 0700 15.9 -8.8 54 2.2 13.1 SW | 223 51.9 66.0 SW | 214 15.7 19.8 67.0
11/28/22 - 0600 17.3 -6.3 62 6.6 14.9 SW | 219 48.6 67.0 S | 185 16.3 19.8 67.0
11/28/22 - 0500 17.4 -6.1 49 1.3 14.1 SW | 220 48.2 64.1 SSW | 210 16.9 19.8 64.1
11/28/22 - 0400 17.4 -6.6 37 -4.8 13.3 SW | 220 51.3 57.9 SW | 228 16.9 19.8 59.6
11/28/22 - 0300 18.4 -5.2 26 -10.8 13.5 SSW | 212 51.3 59.6 SSW | 212 17.8 19.8 59.6
11/28/22 - 0200 18.9 -4.5 23 -12.6 13.7 SW | 215 51.4 56.9 SW | 218 18.5 19.8 58.6
11/28/22 - 0100 19.2 -4.3 25 -11.2 14.1 SW | 220 53.3 58.6 SSW | 193 18.5 19.8 58.6
11/28/22 - 0000 20.0 -2.7 26 -9.2 14.8 SW | 215 50.3 58.0 SW | 227 19.6 32.0 58.0
11/27/22 - 2300 20.3 -1.5 32 -5.0 15.5 SW | 222 45.7 51.7 S | 184 19.7 32.0 55.2
11/27/22 - 2200 21.2 -0.6 24 -10.4 15.6 SW | 222 47.6 55.0 SSW | 208 20.8 32.0 55.2
11/27/22 - 2100 21.6 -0.3 19 -14.7 15.6 SW | 225 48.7 55.2 SW | 216 21.1 32.0 55.2
11/27/22 - 2000 21.6 0.1 22 -11.7 15.8 SW | 230 46.4 52.7 SSW | 213 21.1 32.0 52.7
11/27/22 - 1900 21.6 0.4 34 -3.3 16.7 SW | 232 44.7 49.6 WSW | 247 21.4 32.0 49.6
11/27/22 - 1800 21.9 1.2 51 6.4 18.2 SW | 233 43.2 48.7 SW | 224 21.5 32.0 48.7
11/27/22 - 1700 23.6 4.1 53 9.0 19.9 SW | 235 40.2 46.7 WSW | 241 22.3 32.0 48.7
11/27/22 - 1600 25.4 6.9 50 9.3 21.2 SW | 227 38.5 44.9 SSW | 201 24.5 32.0 48.7
11/27/22 - 1500 26.8 9.8 42 7.0 21.8 SW | 233 34.0 41.8 SSW | 198 25.9 32.0 48.7
11/27/22 - 1400 26.7 8.7 34 2.2 20.9 WSW | 239 38.4 48.7 SW | 226 25.9 32.0 48.7
11/27/22 - 1300 26.8 9.1 30 -0.7 20.6 WSW | 242 36.7 46.3 WSW | 250 25.9 32.0 46.3
11/27/22 - 1200 27.7 11.7 25 -3.6 20.9 WSW | 241 30.4 42.7 WSW | 246 26.0 32.0 42.7
11/27/22 - 1100 28.2 13.0 22 -6.1 21.0 SW | 234 27.6 34.6 WSW | 241 26.0 32.0 34.6
11/27/22 - 1000 29.1 16.4 19 -8.6 21.4 SSW | 200 19.3 27.1 SW | 223 26.0 32.0 27.1
11/27/22 - 0900 28.0 15.7 15 -13.3 20.2 SSW | 196 17.0 21.5 SSW | 193 26.0 32.0 25.8
11/27/22 - 0800 26.8 13.4 17 -11.8 19.5 SW | 217 19.1 24.3 S | 178 26.0 32.0 25.8
11/27/22 - 0700 26.4 13.2 18 -11.5 19.2 SW | 216 18.0 25.8 SW | 230 26.0 32.0 25.8
11/27/22 - 0600 26.4 13.5 17 -13.0 19.1 SW | 214 17.4 21.1 S | 172 26.0 32.0 21.2
11/27/22 - 0500 28.2 16.6 15 -14.1 20.3 WSW | 242 15.2 21.2 WSW | 249 26.0 32.0 21.2
11/27/22 - 0400 29.2 21.1 12 -16.5 20.9 W | 275 8.6 18.9 WNW | 287 26.5 32.0 18.9
11/27/22 - 0300 28.8 21.7 10 -20.8 20.4 WNW | 288 6.9 10.3 NNW | 332 26.5 30.2 16.8
11/27/22 - 0200 27.3 19.1 11 -21.1 19.3 WSW | 256 8.0 12.4 WSW | 244 26.5 28.0 16.8
11/27/22 - 0100 26.9 16.9 9 -24.2 18.9 WSW | 243 11.0 16.8 WSW | 253 26.5 27.3 16.8
11/27/22 - 0000 29.0 21.4 7 -28.7 20.2 SW | 217 7.7 13.4 WNW | 286 20.8 29.6 45.9
11/26/22 - 2300 28.3 19.3 5 -32.9 19.5 NE | 47 9.7 17.7 ENE | 77 20.8 29.5 45.9
11/26/22 - 2200 26.1 11.4 7 -30.1 18.1 ENE | 60 22.8 28.3 NE | 53 20.8 29.5 45.9
11/26/22 - 2100 23.1 5.6 22 -12.8 17.0 NE | 53 29.6 36.6 NE | 47 20.8 29.5 45.9
11/26/22 - 2000 22.3 2.8 46 3.1 18.1 NE | 48 37.0 40.2 NE | 50 20.8 29.5 45.9
11/26/22 - 1900 21.3 1.1 80 16.0 19.8 NE | 43 39.1 45.9 NE | 38 20.8 29.5 45.9
11/26/22 - 1800 23.7 5.5 62 11.9 20.6 NE | 44 33.8 41.0 NE | 43 21.6 29.5 43.1
11/26/22 - 1700 25.2 11.7 57 11.4 21.6 NE | 39 18.4 33.0 NE | 34 23.4 29.5 43.1
11/26/22 - 1600 25.6 19.2 64 14.7 22.4 SE | 130 5.3 16.3 NE | 34 24.2 29.5 43.1
11/26/22 - 1500 27.6 21.4 57 14.2 23.7 ESE | 103 5.6 13.9 NNE | 28 24.2 29.5 43.1
11/26/22 - 1400 27.9 17.9 52 12.4 23.5 SW | 229 11.3 19.0 SW | 215 24.2 29.4 43.1
11/26/22 - 1300 27.8 17.4 53 12.9 23.6 SW | 236 12.2 23.0 WSW | 254 24.2 29.4 43.1
11/26/22 - 1200 26.6 15.8 50 10.5 22.3 WSW | 238 12.5 23.6 WSW | 245 24.2 29.4 43.1
11/26/22 - 1100 25.9 13.2 40 4.5 20.7 WSW | 237 16.4 25.3 WSW | 251 24.2 29.4 43.1
11/26/22 - 1000 26.0 12.0 31 -0.6 20.0 WSW | 238 20.2 27.7 WSW | 242 24.2 29.4 43.1
11/26/22 - 0900 25.6 10.4 33 0.4 19.9 SW | 223 23.7 28.0 SSW | 193 24.2 29.4 43.1
11/26/22 - 0800 24.7 8.2 31 -1.8 19.0 SW | 225 27.7 35.3 SW | 228 24.2 29.4 43.1
11/26/22 - 0700 25.4 8.7 36 2.0 20.0 SW | 226 29.5 34.3 WSW | 238 24.6 29.4 43.1
11/26/22 - 0600 26.1 10.2 36 2.8 20.6 SW | 223 27.4 32.2 SSW | 206 25.5 29.4 43.1
11/26/22 - 0500 26.5 10.2 33 1.3 20.7 SW | 235 29.9 35.0 WSW | 238 26.1 29.4 43.1
11/26/22 - 0400 26.8 9.8 30 -0.6 20.6 SW | 234 33.2 43.1 WSW | 242 26.1 29.4 43.1
11/26/22 - 0300 27.0 9.7 31 0.1 20.9 WSW | 238 35.7 42.6 WSW | 242 26.1 29.4 42.6
11/26/22 - 0200 27.2 10.5 35 2.9 21.4 WSW | 242 32.9 38.7 WSW | 242 26.9 29.4 38.7
11/26/22 - 0100 27.8 12.4 35 3.5 21.9 SW | 231 28.1 34.3 WSW | 243 27.0 29.4 34.3
11/26/22 - 0000 28.8 13.5 33 3.4 22.6 SW | 228 28.9 33.4 WSW | 237 27.8 36.6 37.5
11/25/22 - 2300 29.3 14.4 31 2.1 22.7 SW | 219 27.9 32.6 SW | 229 28.7 36.6 37.5
11/25/22 - 2200 30.0 15.2 35 5.3 23.6 SW | 224 28.2 33.6 SW | 226 28.7 36.6 37.5
11/25/22 - 2100 29.1 13.6 45 10.3 23.9 WSW | 239 30.1 33.8 WSW | 242 28.7 36.6 37.5
11/25/22 - 2000 29.6 15.2 45 10.8 24.3 WSW | 243 26.2 32.8 WSW | 250 28.7 36.6 37.5
11/25/22 - 1900 30.7 18.4 42 10.4 25.0 WSW | 237 20.0 24.1 SW | 236 29.3 36.6 37.5
11/25/22 - 1800 33.6 23.3 39 11.2 27.1 SW | 222 16.3 23.2 SW | 225 29.3 36.6 37.5
11/25/22 - 1700 34.2 24.4 38 11.0 27.4 SSW | 210 14.9 19.5 SW | 222 29.3 36.6 37.5
11/25/22 - 1600 34.5 28.3 37 11.0 27.6 SW | 225 7.3 14.4 SSW | 202 29.3 36.6 37.5
11/25/22 - 1500 35.3 26.7 35 10.5 28.0 SW | 222 12.5 18.6 SW | 230 29.3 36.6 37.5
11/25/22 - 1400 35.8 26.6 34 9.9 28.2 SSW | 213 14.7 27.4 SE | 140 29.3 36.6 37.5
11/25/22 - 1300 34.9 25.1 31 7.4 27.2 SW | 218 15.5 21.2 SSW | 198 29.3 35.5 37.5
11/25/22 - 1200 34.7 23.8 30 6.6 26.9 SW | 225 18.9 24.8 WSW | 238 29.3 35.2 37.5
11/25/22 - 1100 34.5 25.1 28 4.8 26.5 SW | 222 14.2 19.4 SW | 221 29.3 35.1 37.5
11/25/22 - 1000 33.4 22.0 28 3.6 25.7 SW | 235 19.7 24.8 WSW | 242 29.3 35.0 37.5
11/25/22 - 0900 32.2 20.4 29 3.2 24.8 WSW | 238 19.4 25.3 WSW | 240 29.3 35.0 37.5
11/25/22 - 0800 30.4 17.2 30 2.8 23.6 WSW | 238 22.7 33.8 WSW | 241 29.3 35.0 37.5
11/25/22 - 0700 31.0 16.2 30 3.3 24.0 SW | 235 30.0 37.5 WSW | 243 29.4 35.0 37.5
11/25/22 - 0600 31.3 18.0 29 2.9 24.2 SW | 236 24.3 29.2 WSW | 238 31.0 35.0 29.2
11/25/22 - 0500 31.3 18.4 28 1.7 24.0 WSW | 237 22.2 28.0 WSW | 241 31.0 35.0 28.0
11/25/22 - 0400 32.1 20.0 26 0.8 24.4 WSW | 237 20.2 23.3 WSW | 240 31.4 35.0 23.3
11/25/22 - 0300 32.8 22.1 25 0.8 24.9 SW | 219 16.6 19.7 SW | 236 32.3 35.0 19.7
11/25/22 - 0200 34.2 25.8 24 0.8 25.8 SW | 221 11.4 14.9 SW | 236 33.3 35.0 18.1
11/25/22 - 0100 34.3 24.4 24 1.3 25.9 SW | 229 15.6 18.1 WSW | 237 33.9 35.0 18.1
11/25/22 - 0000 35.0 26.7 23 0.5 26.2 SW | 221 11.5 15.8 SSW | 205 25.1 35.6 55.8
Max 35.8 28.3 94 16.7 28.2 - 67.8 85.0 - 33.9 36.6 85.0
Avg 21.9 3.6 50 2.4 17.8 - 33.0 41.8 - - - -
Min 8.2 -14.9 5 -32.9 8.0 - 2.4 7.4 - 7.6 9.8 16.8